»·PEaware :: N480H KFOT-KUKI

N480H :: KFOT-KUKI

FLIGHT INFORMATION

Flight Status: Arrived
Operator: Privately registered:
United States
More flights under this callsign
Pilot: John N. (54)
Aircraft: CESSNA T210 TURBO CENTURION
(T210)
More flights by this aircraft type
Origin: KFOT Rohnerville
United States
Destination: KUKI Ukiah Mun
United States
More flights between these airports :: More routes between these airports
Route: DCT
File this flight plan on PilotEdge
Remarks:
Altitude:
(Current/Filed)
7,500ft
Speed:
(Current/Filed)
170kts
Departed: 05-Jun-17 06:56 AM
Arrived: 05-Jun-17 08:44 AM
Distance/Time
Traveled:
96nm/1:48
Distance/Time
To Go:
Arrived

Flight Plot

Page will automatically refresh every two minutes.

Flight plan parsing failed; only flown route is shown


Map Options




Map Legend


Flown Route
Filed Route
Departure Airport
Arrival Airport
Navaid (VOR, NDB)
Fix

Horizontal Profiles

Position Reports

Time Latitude Longitude Heading Altitude Ground
Speed
05-Jun-17 06:57 40.491227 -124.102262 133 5498ft 136kts
05-Jun-17 06:58 40.458084 -124.069817 151 5503ft 159kts
05-Jun-17 06:59 40.418079 -124.042171 152 5500ft 165kts
05-Jun-17 07:00 40.377063 -124.014758 153 5500ft 166kts
05-Jun-17 07:01 40.335974 -123.987468 153 5500ft 166kts
05-Jun-17 07:02 40.294790 -123.960171 153 5500ft 166kts
05-Jun-17 07:03 40.253760 -123.933016 153 5500ft 166kts
05-Jun-17 07:04 40.212547 -123.905777 153 5500ft 166kts
05-Jun-17 07:05 40.171230 -123.878507 153 5500ft 166kts
05-Jun-17 07:06 40.129964 -123.851309 153 5500ft 166kts
05-Jun-17 07:07 40.088765 -123.824191 153 5498ft 167kts
05-Jun-17 07:08 40.047416 -123.797012 153 5489ft 167kts
05-Jun-17 07:09 40.005978 -123.769812 153 5474ft 167kts
05-Jun-17 07:10 39.964330 -123.742512 153 5449ft 168kts
05-Jun-17 07:11 39.922585 -123.715186 153 5427ft 168kts
05-Jun-17 07:12 39.882935 -123.689267 153 5411ft 168kts
05-Jun-17 07:13 39.841146 -123.661985 153 5400ft 168kts
05-Jun-17 07:14 39.799607 -123.634903 153 5399ft 167kts
05-Jun-17 07:15 39.758125 -123.607894 153 5399ft 167kts
05-Jun-17 07:16 39.716724 -123.580974 153 5399ft 167kts
05-Jun-17 07:17 39.675046 -123.553911 153 5399ft 167kts
05-Jun-17 07:18 39.633597 -123.527034 153 5399ft 167kts
05-Jun-17 07:19 39.591778 -123.499954 153 5400ft 171kts
05-Jun-17 07:20 39.547021 -123.471060 153 4929ft 189kts
05-Jun-17 07:21 39.501581 -123.441741 153 4375ft 191kts
05-Jun-17 07:22 39.454874 -123.410581 140 3796ft 188kts
05-Jun-17 07:34 40.555622 -124.132541 219 396ft 0kts
05-Jun-17 07:35 40.555622 -124.132541 219 396ft 0kts
05-Jun-17 07:36 40.555622 -124.132541 219 396ft 0kts
05-Jun-17 07:37 40.555622 -124.132541 219 396ft 0kts
05-Jun-17 07:38 40.555622 -124.132541 219 396ft 0kts
05-Jun-17 07:39 40.555622 -124.132541 219 396ft 0kts
05-Jun-17 07:40 40.555622 -124.132541 219 396ft 0kts
05-Jun-17 07:41 40.555622 -124.132541 219 396ft 0kts
05-Jun-17 07:42 40.555622 -124.132541 219 396ft 0kts
05-Jun-17 07:43 40.555622 -124.132541 219 396ft 0kts
05-Jun-17 07:44 40.555622 -124.132541 219 396ft 0kts
05-Jun-17 07:45 40.555622 -124.132541 219 396ft 0kts
05-Jun-17 07:46 40.555622 -124.132541 219 396ft 0kts
05-Jun-17 07:47 40.555622 -124.132541 219 396ft 0kts
05-Jun-17 07:48 40.555622 -124.132541 219 396ft 0kts
05-Jun-17 07:49 40.555622 -124.132541 219 396ft 0kts
05-Jun-17 07:50 40.555622 -124.132541 219 396ft 0kts
05-Jun-17 07:51 40.555622 -124.132541 219 396ft 0kts
05-Jun-17 07:52 40.555622 -124.132541 219 396ft 0kts
05-Jun-17 07:53 40.555622 -124.132541 219 396ft 0kts
05-Jun-17 07:54 40.555622 -124.132541 219 396ft 0kts
05-Jun-17 07:55 40.555622 -124.132541 219 396ft 0kts
05-Jun-17 07:56 40.555622 -124.132541 219 396ft 0kts
05-Jun-17 07:57 40.555622 -124.132541 219 396ft 0kts
05-Jun-17 07:58 40.555622 -124.132541 219 396ft 0kts
05-Jun-17 07:59 40.555622 -124.132541 219 396ft 0kts
05-Jun-17 08:00 40.555622 -124.132541 219 396ft 0kts
05-Jun-17 08:01 40.555622 -124.132541 219 396ft 0kts
05-Jun-17 08:02 40.555622 -124.132541 219 396ft 0kts
05-Jun-17 08:03 40.555622 -124.132541 219 396ft 0kts
05-Jun-17 08:04 40.555622 -124.132541 219 396ft 0kts
05-Jun-17 08:05 40.555622 -124.132541 219 396ft 0kts
05-Jun-17 08:06 40.555622 -124.132541 219 396ft 0kts
05-Jun-17 08:07 40.555622 -124.132541 219 396ft 0kts
05-Jun-17 08:08 40.555622 -124.132541 219 396ft 0kts
05-Jun-17 08:09 40.555622 -124.132541 219 396ft 0kts
05-Jun-17 08:10 40.555622 -124.132541 219 396ft 0kts
05-Jun-17 08:11 40.555622 -124.132541 219 396ft 0kts
05-Jun-17 08:12 40.555622 -124.132541 219 396ft 0kts
05-Jun-17 08:13 40.555268 -124.132673 139 396ft 5kts
05-Jun-17 08:14 40.554822 -124.132737 311 396ft 13kts
05-Jun-17 08:15 40.557729 -124.137731 264 396ft 7kts
05-Jun-17 08:16 40.550639 -124.126864 127 470ft 93kts
05-Jun-17 08:17 40.528474 -124.106384 169 1435ft 107kts
05-Jun-17 08:18 40.501389 -124.090657 147 2189ft 108kts
05-Jun-17 08:19 40.473760 -124.074926 158 2960ft 110kts
05-Jun-17 08:20 40.445574 -124.058918 154 3744ft 111kts
05-Jun-17 08:21 40.417592 -124.041145 153 4517ft 111kts
05-Jun-17 08:22 40.389404 -124.022652 152 5227ft 115kts
05-Jun-17 08:23 40.372576 -124.011528 153 5496ft 130kts
05-Jun-17 08:24 40.352174 -123.998052 153 5499ft 154kts
05-Jun-17 08:25 40.332864 -123.985307 153 5494ft 164kts
05-Jun-17 08:26 40.260528 -123.937485 153 5491ft 174kts
05-Jun-17 08:27 40.181585 -123.885341 153 5490ft 174kts
05-Jun-17 08:28 40.100463 -123.831890 153 5491ft 174kts
05-Jun-17 08:29 40.019298 -123.778553 153 5491ft 174kts
05-Jun-17 08:30 39.917242 -123.711693 153 5475ft 175kts
05-Jun-17 08:31 39.805133 -123.638508 153 5436ft 175kts
05-Jun-17 08:32 39.692459 -123.565217 153 5426ft 175kts
05-Jun-17 08:33 39.600072 -123.505323 153 5426ft 175kts
05-Jun-17 08:34 39.556626 -123.477236 153 5426ft 175kts
05-Jun-17 08:35 39.513294 -123.449283 153 5447ft 175kts
05-Jun-17 08:36 39.468175 -123.420189 153 5127ft 184kts
05-Jun-17 08:37 39.422032 -123.390471 153 4803ft 187kts
05-Jun-17 08:38 39.380778 -123.350972 133 4378ft 189kts
05-Jun-17 08:39 39.341247 -123.309714 143 3974ft 188kts
05-Jun-17 08:40 39.298368 -123.269212 143 3315ft 192kts
05-Jun-17 08:41 39.256041 -123.236450 158 2502ft 168kts
05-Jun-17 08:42 39.213621 -123.223599 170 1768ft 143kts
05-Jun-17 08:43 39.179748 -123.214676 166 1385ft 103kts
05-Jun-17 08:44 39.153319 -123.207934 168 1176ft 92kts
05-Jun-17 08:45 39.129787 -123.201811 168 627ft 75kts
05-Jun-17 08:46 39.119980 -123.199970 263 618ft 8kts
05-Jun-17 08:47 39.119958 -123.200316 265 618ft 0kts
05-Jun-17 08:48 39.119958 -123.200316 265 618ft 0kts
05-Jun-17 08:49 39.119958 -123.200316 265 618ft 0kts
05-Jun-17 08:50 39.119958 -123.200316 265 618ft 0kts
05-Jun-17 08:51 39.119958 -123.200316 265 618ft 0kts
05-Jun-17 08:52 39.119958 -123.200317 265 618ft 0kts
05-Jun-17 08:53 39.119958 -123.200317 265 618ft 0kts
05-Jun-17 08:54 39.119958 -123.200317 265 618ft 0kts
05-Jun-17 08:55 39.119958 -123.200317 265 618ft 0kts
05-Jun-17 08:56 39.119958 -123.200317 265 618ft 0kts
05-Jun-17 08:57 39.119958 -123.200317 265 618ft 0kts
05-Jun-17 08:58 39.119958 -123.200317 265 618ft 0kts
05-Jun-17 08:59 39.119958 -123.200317 265 618ft 0kts
05-Jun-17 09:00 39.119958 -123.200317 265 618ft 0kts

Navigation Log

Ident Type
Flight plan parsing failed, navigation log unavailable